Time;durP1;ratioP1;P1;durP2;ratioP2;P2;SDS_P1;SDS_P2;PMS_P1;PMS_P2;Temp;Humidity;BMP_temperature;BMP_pressure;BME280_temperature;BME280_humidity;BME280_pressure;Samples;Min_cycle;Max_cycle;Signal;HPM_P1;HPM_P2
2023/04/19 00:00:42;;;;;;;6.85;5.32;;;;;;;;;;4889957;29;20420;-94
2023/04/19 00:03:18;;;;;;;12.70;5.65;;;;;;;;;;4905128;29;20107;-94
2023/04/19 00:05:52;;;;;;;8.85;5.47;;;;;;;;;;4891427;29;20129;-94
2023/04/19 00:08:35;;;;;;;7.68;5.32;;;;;;;;;;4905618;29;20139;-94
2023/04/19 00:11:01;;;;;;;6.97;5.50;;;;;;;;;;4892003;29;20049;-94
2023/04/19 00:13:49;;;;;;;;;;;;;;;;;;;;;
2023/04/19 00:16:16;;;;;;;10.05;5.82;;;;;;;;;;4890387;29;20057;-94
2023/04/19 00:18:45;;;;;;;11.00;6.18;;;;;;;;;;4904556;29;20049;-94
2023/04/19 00:21:20;;;;;;;9.70;6.13;;;;;;;;;;4904048;29;20049;-93
2023/04/19 00:23:46;;;;;;;10.02;6.43;;;;;;;;;;4890236;29;20045;-93
2023/04/19 00:26:14;;;;;;;12.10;6.30;;;;;;;;;;4890084;29;20041;-93
2023/04/19 00:28:41;;;;;;;8.30;6.10;;;;;;;;;;4887976;29;20048;-93
2023/04/19 00:31:07;;;;;;;7.97;6.97;;;;;;;;;;4890061;29;20045;-93
2023/04/19 00:33:33;;;;;;;8.30;6.63;;;;;;;;;;4892196;29;20144;-93
2023/04/19 00:35:59;;;;;;;13.00;7.35;;;;;;;;;;4893825;29;21025;-93
2023/04/19 00:38:25;;;;;;;9.07;6.20;;;;;;;;;;4890733;29;20045;-92
2023/04/19 00:40:51;;;;;;;9.25;6.60;;;;;;;;;;4880825;29;20178;-92
2023/04/19 00:43:18;;;;;;;22.00;7.10;;;;;;;;;;4880451;29;20045;-93
2023/04/19 00:45:44;;;;;;;9.70;6.35;;;;;;;;;;4880378;29;20041;-93
2023/04/19 00:48:11;;;;;;;12.52;7.10;;;;;;;;;;4879785;29;20065;-93
2023/04/19 00:50:37;;;;;;;8.82;6.43;;;;;;;;;;4879888;29;20148;-92
2023/04/19 00:53:03;;;;;;;9.35;6.88;;;;;;;;;;4879390;29;20057;-92
2023/04/19 00:55:29;;;;;;;10.55;7.13;;;;;;;;;;4879587;29;20059;-93
2023/04/19 00:57:55;;;;;;;13.95;7.07;;;;;;;;;;4880098;29;20055;-94
2023/04/19 01:00:22;;;;;;;11.50;6.57;;;;;;;;;;4879712;29;20044;-93
2023/04/19 01:02:48;;;;;;;7.97;6.38;;;;;;;;;;4880166;29;20047;-91
2023/04/19 01:05:14;;;;;;;9.75;7.40;;;;;;;;;;4879593;29;20048;-94
2023/04/19 01:07:40;;;;;;;9.20;7.32;;;;;;;;;;4879732;29;20045;-93
2023/04/19 01:10:06;;;;;;;9.65;6.55;;;;;;;;;;4879410;29;20517;-93
2023/04/19 01:12:32;;;;;;;10.25;6.90;;;;;;;;;;4879799;29;20056;-93
2023/04/19 01:14:58;;;;;;;10.98;7.28;;;;;;;;;;4879806;29;20045;-94
2023/04/19 01:20:00;;;;;;;10.80;8.60;;;;;;;;;;4943979;23;20262;-93
2023/04/19 01:22:27;;;;;;;12.80;6.68;;;;;;;;;;4881227;29;20140;-93
2023/04/19 01:24:53;;;;;;;12.00;7.47;;;;;;;;;;4867251;29;20056;-92
2023/04/19 01:27:23;;;;;;;14.23;7.93;;;;;;;;;;4896765;29;20052;-93
2023/04/19 01:29:50;;;;;;;12.02;7.22;;;;;;;;;;4859700;29;20529;-92
2023/04/19 01:32:16;;;;;;;15.10;7.75;;;;;;;;;;4859764;29;20056;-91
2023/04/19 01:34:45;;;;;;;10.85;7.93;;;;;;;;;;4869520;29;20160;-93
2023/04/19 01:37:22;;;;;;;10.85;7.25;;;;;;;;;;4853828;29;20541;-93
2023/04/19 01:39:48;;;;;;;14.05;7.97;;;;;;;;;;4854013;29;20068;-94
2023/04/19 01:42:14;;;;;;;11.73;8.02;;;;;;;;;;4867866;29;20087;-93
2023/04/19 01:44:43;;;;;;;10.50;7.85;;;;;;;;;;4868784;29;20060;-95
2023/04/19 01:47:09;;;;;;;13.43;8.45;;;;;;;;;;4868071;29;20053;-94
2023/04/19 01:49:36;;;;;;;13.85;8.25;;;;;;;;;;4852873;29;20061;-93
2023/04/19 01:52:05;;;;;;;12.52;9.02;;;;;;;;;;4871262;29;20045;-94
2023/04/19 01:54:34;;;;;;;10.70;8.13;;;;;;;;;;4856139;29;20062;-94
2023/04/19 01:57:00;;;;;;;12.32;7.85;;;;;;;;;;4886305;29;20113;-93
2023/04/19 01:59:26;;;;;;;15.15;8.43;;;;;;;;;;4887228;29;20045;-94
2023/04/19 02:01:52;;;;;;;11.00;8.68;;;;;;;;;;4908659;29;20108;-93
2023/04/19 02:04:20;;;;;;;11.13;8.55;;;;;;;;;;4894768;29;20049;-95
2023/04/19 02:06:47;;;;;;;12.65;8.95;;;;;;;;;;4892964;29;20184;-95
2023/04/19 02:09:13;;;;;;;11.15;8.73;;;;;;;;;;4893772;29;20049;-94
2023/04/19 02:11:39;;;;;;;12.50;8.38;;;;;;;;;;4892988;29;20049;-92
2023/04/19 02:14:05;;;;;;;13.98;10.07;;;;;;;;;;4964946;23;20135;-92
2023/04/19 02:16:41;;;;;;;16.17;9.35;;;;;;;;;;4897294;29;20040;-93
2023/04/19 02:22:02;;;;;;;13.93;9.30;;;;;;;;;;4930436;23;20537;-91
2023/04/19 02:24:47;;;;;;;14.98;9.05;;;;;;;;;;4888020;29;20119;-93
2023/04/19 02:27:20;;;;;;;14.93;10.00;;;;;;;;;;4871538;29;20064;-91
2023/04/19 02:30:13;;;;;;;10.93;8.25;;;;;;;;;;4912481;29;20446;-95
2023/04/19 02:32:40;;;;;;;17.27;9.75;;;;;;;;;;4894247;29;20072;-94
2023/04/19 02:35:08;;;;;;;12.75;8.90;;;;;;;;;;4895072;29;20048;-94
2023/04/19 02:37:34;;;;;;;12.52;8.95;;;;;;;;;;4896897;29;20133;-95
2023/04/19 02:40:05;;;;;;;14.90;8.73;;;;;;;;;;4895839;29;20052;-94
2023/04/19 02:42:43;;;;;;;12.77;8.13;;;;;;;;;;4896317;29;20051;-94
2023/04/19 02:45:12;;;;;;;10.13;8.07;;;;;;;;;;4896163;29;20044;-93
2023/04/19 02:47:38;;;;;;;10.43;7.78;;;;;;;;;;4911645;29;20128;-95
2023/04/19 02:50:05;;;;;;;14.57;8.05;;;;;;;;;;4895952;29;20112;-94
2023/04/19 02:52:33;;;;;;;14.30;8.88;;;;;;;;;;4897053;29;20072;-93
2023/04/19 02:54:59;;;;;;;11.25;7.38;;;;;;;;;;4897053;29;20044;-94
2023/04/19 02:57:26;;;;;;;14.60;8.00;;;;;;;;;;4895084;29;20040;-95
2023/04/19 02:59:52;;;;;;;16.08;8.48;;;;;;;;;;4895124;29;20049;-94
2023/04/19 03:02:18;;;;;;;11.45;7.22;;;;;;;;;;4909872;29;20113;-94
2023/04/19 03:04:44;;;;;;;12.63;7.88;;;;;;;;;;4911104;29;20181;-95
2023/04/19 03:07:10;;;;;;;11.52;7.15;;;;;;;;;;4896494;29;20131;-94
2023/04/19 03:09:36;;;;;;;13.32;8.27;;;;;;;;;;4884450;29;20048;-92
2023/04/19 03:12:02;;;;;;;14.75;9.10;;;;;;;;;;4884988;29;20059;-92
2023/04/19 03:14:28;;;;;;;8.10;6.68;;;;;;;;;;4884422;29;20108;-91
2023/04/19 03:16:54;;;;;;;10.18;6.90;;;;;;;;;;4868531;29;20391;-90
2023/04/19 03:19:20;;;;;;;15.85;7.47;;;;;;;;;;4883932;29;20048;-90
2023/04/19 03:21:47;;;;;;;10.27;7.50;;;;;;;;;;4896631;29;20053;-91
2023/04/19 03:24:13;;;;;;;11.00;7.35;;;;;;;;;;4865427;29;20097;-95
2023/04/19 03:26:39;;;;;;;10.63;7.35;;;;;;;;;;4849992;29;20529;-92
2023/04/19 03:29:05;;;;;;;14.25;7.55;;;;;;;;;;4850423;29;20452;-91
2023/04/19 03:31:31;;;;;;;12.10;8.05;;;;;;;;;;4865258;29;20088;-90
2023/04/19 03:33:57;;;;;;;11.35;7.40;;;;;;;;;;4865266;29;20045;-91
2023/04/19 03:36:23;;;;;;;12.75;6.95;;;;;;;;;;4864960;29;20092;-93
2023/04/19 03:38:49;;;;;;;9.45;7.30;;;;;;;;;;4849930;29;20049;-91
2023/04/19 03:41:19;;;;;;;9.30;7.05;;;;;;;;;;4865271;29;20103;-92
2023/04/19 03:43:45;;;;;;;13.98;7.03;;;;;;;;;;4865405;29;20052;-94
2023/04/19 03:46:12;;;;;;;10.82;6.57;;;;;;;;;;4849745;29;20077;-93
2023/04/19 03:48:38;;;;;;;10.00;6.40;;;;;;;;;;4849922;29;20045;-92
2023/04/19 03:51:04;;;;;;;9.75;7.25;;;;;;;;;;4849460;29;20517;-91
2023/04/19 03:53:30;;;;;;;9.13;7.07;;;;;;;;;;4849654;29;20403;-90
2023/04/19 03:55:56;;;;;;;11.05;7.55;;;;;;;;;;4864964;29;20049;-91
2023/04/19 03:58:22;;;;;;;11.23;7.85;;;;;;;;;;4865367;29;20048;-90
2023/04/19 04:00:48;;;;;;;15.43;7.30;;;;;;;;;;4849171;29;20514;-90
2023/04/19 04:03:14;;;;;;;16.38;7.88;;;;;;;;;;4864531;29;20049;-90
2023/04/19 04:05:40;;;;;;;11.23;8.23;;;;;;;;;;4864923;29;20049;-91
2023/04/19 04:08:06;;;;;;;11.02;8.40;;;;;;;;;;4864562;29;20566;-90
2023/04/19 04:10:32;;;;;;;10.48;7.97;;;;;;;;;;4879923;29;20057;-91
2023/04/19 04:12:58;;;;;;;13.18;7.82;;;;;;;;;;4849072;29;20056;-91
2023/04/19 04:15:25;;;;;;;12.73;9.27;;;;;;;;;;4849291;29;20048;-91
2023/04/19 04:17:51;;;;;;;10.63;8.48;;;;;;;;;;4864717;29;20045;-91
2023/04/19 04:20:17;;;;;;;11.82;7.60;;;;;;;;;;4849632;29;20056;-91
2023/04/19 04:22:45;;;;;;;10.60;6.88;;;;;;;;;;4864280;29;20056;-91
2023/04/19 04:25:11;;;;;;;13.10;7.90;;;;;;;;;;4864113;29;20084;-92
2023/04/19 04:27:38;;;;;;;13.98;8.18;;;;;;;;;;4848918;29;20053;-91
2023/04/19 04:30:07;;;;;;;12.82;6.97;;;;;;;;;;4864214;29;20513;-92
2023/04/19 04:32:37;;;;;;;12.00;7.22;;;;;;;;;;4867773;29;20085;-92
2023/04/19 04:35:03;;;;;;;8.98;6.53;;;;;;;;;;4867219;29;20130;-92
2023/04/19 04:37:32;;;;;;;9.43;7.00;;;;;;;;;;4850519;29;20151;-93
2023/04/19 04:39:59;;;;;;;12.77;7.18;;;;;;;;;;4879415;29;20060;-91
2023/04/19 04:42:26;;;;;;;10.95;6.53;;;;;;;;;;4863928;29;20049;-92
2023/04/19 04:44:52;;;;;;;12.45;7.22;;;;;;;;;;4863347;29;20516;-92
2023/04/19 04:47:20;;;;;;;9.73;7.65;;;;;;;;;;4848862;29;20153;-91
2023/04/19 04:49:46;;;;;;;8.82;6.75;;;;;;;;;;4863832;29;20109;-91
2023/04/19 04:52:12;;;;;;;10.30;6.70;;;;;;;;;;4864080;29;20080;-94
2023/04/19 04:54:38;;;;;;;9.30;7.68;;;;;;;;;;4849056;29;20041;-93
2023/04/19 04:57:04;;;;;;;8.65;6.35;;;;;;;;;;4848643;29;20080;-92
2023/04/19 04:59:30;;;;;;;11.30;6.63;;;;;;;;;;4848554;29;20049;-93
2023/04/19 05:01:56;;;;;;;11.32;7.40;;;;;;;;;;4848321;29;20058;-94
2023/04/19 05:04:22;;;;;;;9.32;6.57;;;;;;;;;;4879183;29;20132;-92
2023/04/19 05:06:48;;;;;;;8.70;6.75;;;;;;;;;;4848658;29;20048;-93
2023/04/19 05:09:14;;;;;;;10.07;6.75;;;;;;;;;;4863636;29;20049;-91
2023/04/19 05:11:41;;;;;;;10.75;5.72;;;;;;;;;;4863591;29;20075;-91
2023/04/19 05:14:07;;;;;;;9.13;6.38;;;;;;;;;;4848125;29;20045;-90
2023/04/19 05:16:33;;;;;;;7.97;6.45;;;;;;;;;;4863451;29;20045;-93
2023/04/19 05:18:59;;;;;;;11.48;6.60;;;;;;;;;;4879220;29;20526;-92
2023/04/19 05:21:25;;;;;;;13.68;6.13;;;;;;;;;;4850162;29;20471;-92
2023/04/19 05:23:52;;;;;;;9.55;6.35;;;;;;;;;;4866974;29;20077;-91
2023/04/19 05:26:18;;;;;;;10.10;5.97;;;;;;;;;;4881931;29;20048;-90
2023/04/19 05:28:45;;;;;;;7.80;5.90;;;;;;;;;;4882322;29;20048;-91
2023/04/19 05:31:11;;;;;;;11.13;6.43;;;;;;;;;;4882025;29;20083;-92
2023/04/19 05:33:37;;;;;;;9.77;5.47;;;;;;;;;;4882668;29;20059;-92
2023/04/19 05:36:03;;;;;;;9.80;6.43;;;;;;;;;;4866657;29;20044;-92
2023/04/19 05:38:29;;;;;;;8.20;5.35;;;;;;;;;;4881799;29;20533;-93
2023/04/19 05:40:56;;;;;;;8.77;5.25;;;;;;;;;;4897424;29;20060;-92
2023/04/19 05:43:22;;;;;;;8.85;6.20;;;;;;;;;;4882133;29;20044;-92
2023/04/19 05:45:48;;;;;;;8.02;5.43;;;;;;;;;;4881848;29;20056;-90
2023/04/19 05:48:14;;;;;;;6.50;4.85;;;;;;;;;;4882162;29;20131;-92
2023/04/19 05:50:40;;;;;;;7.90;5.60;;;;;;;;;;4866488;29;20052;-91
2023/04/19 05:53:06;;;;;;;7.63;4.80;;;;;;;;;;4865991;29;20052;-92
2023/04/19 05:55:32;;;;;;;10.27;4.55;;;;;;;;;;4881603;29;20140;-92
2023/04/19 05:57:58;;;;;;;8.20;5.55;;;;;;;;;;4880736;29;20063;-92
2023/04/19 06:00:24;;;;;;;6.28;4.60;;;;;;;;;;4881457;29;20049;-90
2023/04/19 06:02:50;;;;;;;10.15;4.88;;;;;;;;;;4881726;29;20414;-91
2023/04/19 06:05:16;;;;;;;16.10;5.65;;;;;;;;;;4866297;29;20080;-92
2023/04/19 06:07:43;;;;;;;8.35;5.15;;;;;;;;;;4881633;29;20045;-92
2023/04/19 06:10:09;;;;;;;14.68;4.95;;;;;;;;;;4881426;29;20052;-92
2023/04/19 06:12:35;;;;;;;7.75;4.93;;;;;;;;;;4909046;23;20076;-93
2023/04/19 06:15:01;;;;;;;8.75;4.60;;;;;;;;;;4866601;29;20478;-92
2023/04/19 06:17:35;;;;;;;7.03;4.90;;;;;;;;;;4898119;29;20052;-91
2023/04/19 06:20:06;;;;;;;5.80;4.43;;;;;;;;;;4867171;29;20427;-94
2023/04/19 06:22:34;;;;;;;5.03;4.18;;;;;;;;;;4868541;29;20442;-93
2023/04/19 06:25:03;;;;;;;6.82;4.85;;;;;;;;;;4883608;29;20049;-92
2023/04/19 06:27:29;;;;;;;6.15;4.68;;;;;;;;;;4882627;29;20132;-92
2023/04/19 06:32:56;;;;;;;5.60;4.45;;;;;;;;;;5033285;23;20061;-95
2023/04/19 06:44:55;;;;;;;7.25;3.92;;;;;;;;;;4877529;29;20044;-96
2023/04/19 06:47:50;;;;;;;5.57;3.63;;;;;;;;;;4887487;29;20116;-95
2023/04/19 06:50:16;;;;;;;6.63;4.45;;;;;;;;;;4885694;29;20057;-94
2023/04/19 06:52:45;;;;;;;5.35;4.03;;;;;;;;;;4869692;29;20085;-95
2023/04/19 06:55:32;;;;;;;5.78;4.57;;;;;;;;;;4858929;29;20056;-96
2023/04/19 06:58:42;;;;;;;;;;;;;;;;;;;;;
2023/04/19 07:04:18;;;;;;;5.50;3.92;;;;;;;;;;4918317;23;20414;-96
2023/04/19 07:09:49;;;;;;;10.88;3.80;;;;;;;;;;5475916;23;20064;-91
2023/04/19 07:12:18;;;;;;;7.40;3.33;;;;;;;;;;4904891;29;20124;-95
2023/04/19 07:14:45;;;;;;;5.22;3.28;;;;;;;;;;4884323;29;20135;-93
2023/04/19 07:17:14;;;;;;;5.82;3.50;;;;;;;;;;4892412;29;20081;-94
2023/04/19 07:23:42;;;;;;;4.55;3.33;;;;;;;;;;4888146;29;20076;-95
2023/04/19 07:26:08;;;;;;;4.00;2.90;;;;;;;;;;4886120;29;20068;-95
2023/04/19 07:28:34;;;;;;;5.10;3.00;;;;;;;;;;4887857;29;20061;-93
2023/04/19 07:34:04;;;;;;;4.78;3.08;;;;;;;;;;4964439;23;20068;-96
2023/04/19 07:36:34;;;;;;;4.82;2.95;;;;;;;;;;4907607;29;20044;-95
2023/04/19 07:39:00;;;;;;;3.72;2.88;;;;;;;;;;4927172;23;20063;-94
2023/04/19 07:41:36;;;;;;;6.07;3.00;;;;;;;;;;4903152;29;20083;-93
2023/04/19 07:44:06;;;;;;;3.67;2.85;;;;;;;;;;4888271;29;20083;-95
2023/04/19 07:46:32;;;;;;;6.80;2.90;;;;;;;;;;4888765;29;20063;-95
2023/04/19 07:48:59;;;;;;;3.85;2.88;;;;;;;;;;4890217;29;20536;-95
2023/04/19 08:00:12;;;;;;;4.40;2.80;;;;;;;;;;4923758;29;20059;-96
2023/04/19 08:02:40;;;;;;;5.60;3.03;;;;;;;;;;4904409;29;20331;-95
2023/04/19 08:05:07;;;;;;;2.75;2.17;;;;;;;;;;4923282;29;20055;-93
2023/04/19 08:10:07;;;;;;;5.00;2.33;;;;;;;;;;5011555;23;20064;-95
2023/04/19 08:12:35;;;;;;;4.93;2.30;;;;;;;;;;4887614;29;20055;-95
2023/04/19 08:18:05;;;;;;;3.38;2.17;;;;;;;;;;4918431;23;20065;-95
2023/04/19 08:20:41;;;;;;;3.28;2.17;;;;;;;;;;4899563;23;20048;-95
2023/04/19 08:23:08;;;;;;;7.80;2.55;;;;;;;;;;4838614;29;20125;-96
2023/04/19 08:25:44;;;;;;;3.58;3.00;;;;;;;;;;4865833;29;20562;-95
2023/04/19 08:28:13;;;;;;;2.95;2.38;;;;;;;;;;4867057;29;20044;-96
2023/04/19 08:30:41;;;;;;;4.13;2.42;;;;;;;;;;4852625;29;20049;-96
2023/04/19 08:42:41;;;;;;;2.50;2.30;;;;;;;;;;4920895;29;20048;-96
2023/04/19 08:45:35;;;;;;;2.55;1.95;;;;;;;;;;4893261;29;20615;-96
2023/04/19 08:48:10;;;;;;;4.90;2.30;;;;;;;;;;4893802;29;20580;-96
2023/04/19 08:50:38;;;;;;;5.03;1.60;;;;;;;;;;4877309;29;20293;-95
2023/04/19 08:53:04;;;;;;;3.25;2.20;;;;;;;;;;4886674;29;20508;-93
2023/04/19 08:55:33;;;;;;;2.40;2.20;;;;;;;;;;4884148;29;20044;-95
2023/04/19 08:58:20;;;;;;;3.08;1.80;;;;;;;;;;4885485;29;20048;-95
2023/04/19 09:03:22;;;;;;;5.05;2.15;;;;;;;;;;4910967;23;20067;-94
2023/04/19 09:05:48;;;;;;;4.95;1.95;;;;;;;;;;4885382;29;20060;-96
2023/04/19 09:08:21;;;;;;;4.55;1.75;;;;;;;;;;4884715;29;20553;-94
2023/04/19 09:10:57;;;;;;;3.08;1.92;;;;;;;;;;4886369;29;20044;-96
2023/04/19 09:13:26;;;;;;;4.18;2.58;;;;;;;;;;4889942;29;20056;-95
2023/04/19 09:19:17;;;;;;;2.65;2.13;;;;;;;;;;5263035;23;20064;-95
2023/04/19 09:21:46;;;;;;;1.75;1.60;;;;;;;;;;4838547;29;20073;-94
2023/04/19 09:24:16;;;;;;;3.67;2.08;;;;;;;;;;4872544;29;20049;-95
2023/04/19 09:27:04;;;;;;;5.82;2.42;;;;;;;;;;4900004;29;20060;-95
2023/04/19 09:29:33;;;;;;;2.47;1.95;;;;;;;;;;4885299;29;20509;-95
2023/04/19 09:32:02;;;;;;;2.03;1.83;;;;;;;;;;4885778;29;20543;-96
2023/04/19 09:34:31;;;;;;;1.85;1.65;;;;;;;;;;4887357;29;20044;-94
2023/04/19 10:58:14;;;;;;;1.95;1.50;;;;;;;;;;5152710;23;20052;-92
2023/04/19 11:01:24;;;;;;;1.33;1.23;;;;;;;;;;5034809;23;20045;-90
2023/04/19 11:03:55;;;;;;;6.53;1.83;;;;;;;;;;4882500;23;20102;-94
2023/04/19 11:18:05;;;;;;;;;;;;;;;;;;;;;
2023/04/19 11:26:46;;;;;;;1.52;1.40;;;;;;;;;;5870486;23;20062;-93
2023/04/19 12:10:49;;;;;;;3.88;2.65;;;;;;;;;;5525694;23;20057;-92
2023/04/19 12:42:44;;;;;;;6.53;3.42;;;;;;;;;;5719735;23;20041;-92
2023/04/19 12:52:16;;;;;;;6.70;3.90;;;;;;;;;;4872281;29;20057;-92
2023/04/19 12:55:10;;;;;;;;;;;;;;;;;;;;;
2023/04/19 13:03:31;;;;;;;8.27;3.78;;;;;;;;;;4884214;29;20525;-95
2023/04/19 13:09:24;;;;;;;8.63;4.07;;;;;;;;;;4911227;23;20065;-95
2023/04/19 13:12:02;;;;;;;9.43;2.97;;;;;;;;;;4886994;29;20069;-96
2023/04/19 13:14:31;;;;;;;3.53;2.90;;;;;;;;;;4856559;29;20059;-94
2023/04/19 13:17:08;;;;;;;7.13;3.72;;;;;;;;;;4884847;29;20052;-93
2023/04/19 13:19:46;;;;;;;;;;;;;;;;;;;;;
2023/04/19 13:22:34;;;;;;;;;;;;;;;;;;;;;
2023/04/19 13:25:13;;;;;;;5.45;2.80;;;;;;;;;;4872126;29;20514;-94
2023/04/19 13:44:28;;;;;;;3.13;2.63;;;;;;;;;;5001826;23;20064;-96
2023/04/19 13:47:00;;;;;;;7.70;4.15;;;;;;;;;;4848834;29;20053;-95
2023/04/19 13:53:14;;;;;;;8.17;3.30;;;;;;;;;;4916762;23;20146;-96
2023/04/19 13:56:14;;;;;;;;;;;;;;;;;;;;;
2023/04/19 13:59:12;;;;;;;6.13;2.95;;;;;;;;;;4901040;29;20058;-96
2023/04/19 14:02:00;;;;;;;9.85;2.88;;;;;;;;;;4902796;29;20055;-96
2023/04/19 14:04:26;;;;;;;6.70;3.40;;;;;;;;;;4902272;29;20449;-94
2023/04/19 14:07:00;;;;;;;7.18;3.65;;;;;;;;;;4902104;29;20044;-94
2023/04/19 14:09:29;;;;;;;;;;;13.90;99.90;;;;;;4903206;29;20040;-95
2023/04/19 14:11:55;;;;;;;3.95;3.25;;;;;;;;;;4873255;29;19967;-96
2023/04/19 14:17:27;;;;;;;21.25;3.92;;;;;;;;;;4899288;29;20659;-95
2023/04/19 14:19:56;;;;;;;6.70;3.42;;;;;;;;;;4896036;29;20067;-94
2023/04/19 14:22:45;;;;;;;6.45;3.03;;;;;;;;;;4911469;23;20060;-94
2023/04/19 14:26:29;;;;;;;5.13;3.17;;;;;;;;;;4893570;29;20053;-94
2023/04/19 14:29:01;;;;;;;;;;;;;;;;;;;;;
2023/04/19 14:31:28;;;;;;;4.47;3.13;;;;;;;;;;4906246;29;20052;-95
2023/04/19 14:37:24;;;;;;;10.27;3.30;;;;;;;;;;4905448;29;20047;-95
2023/04/19 14:42:41;;;;;;;10.27;3.50;;;;;;;;;;4906191;23;20053;-93
2023/04/19 14:45:25;;;;;;;;;;;;;;;;;;;;;
2023/04/19 14:47:54;;;;;;;;;;;;;;;;;;4883904;29;20056;-95
2023/04/19 14:50:23;;;;;;;9.52;3.15;;;;;;;;;;4868488;29;20014;-96
2023/04/19 14:52:53;;;;;;;4.05;2.53;;;;;;;;;;4867981;29;20104;-96
2023/04/19 14:55:55;;;;;;;4.90;3.20;;;;;;;;;;4885347;29;20114;-96
2023/04/19 15:01:15;;;;;;;3.80;2.95;;;;;;;;;;4920033;29;20051;-96
2023/04/19 15:03:41;;;;;;;3.58;2.50;;;;;;;;;;4905126;29;20056;-95
2023/04/19 15:06:10;;;;;;;4.32;2.58;;;;;;;;;;4907031;29;20044;-95
2023/04/19 15:08:36;;;;;;;4.32;2.35;;;;;;;;;;4903294;29;20048;-93
2023/04/19 15:11:05;;;;;;;12.38;3.88;;;;;;;;;;4905035;29;20048;-94
2023/04/19 15:13:34;;;;;;;5.65;2.72;;;;;;;;;;4889292;29;20094;-94
2023/04/19 15:19:16;;;;;;;4.18;3.03;;;;;;;;;;4923904;23;20067;-93
2023/04/19 15:21:42;;;;;;;7.68;3.10;;;;;;;;;;4889215;29;20048;-95
2023/04/19 15:24:11;;;;;;;4.28;2.60;;;;;;;;;;4887249;29;20052;-96
2023/04/19 15:26:38;;;;;;;3.05;1.95;;;;;;;;;;4886654;29;20044;-95
2023/04/19 15:32:18;;;;;;;2.60;2.38;;;;;;;;;;4908635;23;20088;-96
2023/04/19 15:34:54;;;;;;;11.20;3.13;;;;;;;;;;4889461;29;20052;-95
2023/04/19 15:37:20;;;;;;;5.65;1.80;;;;;;;;;;4888814;29;20077;-95
2023/04/19 15:39:49;;;;;;;8.57;2.70;;;;;;;;;;4891867;29;20446;-96
2023/04/19 15:42:18;;;;;;;3.83;2.33;;;;;;;;;;4892810;29;20133;-95
2023/04/19 15:44:47;;;;;;;6.63;2.13;;;;;;;;;;4927745;23;20037;-95
2023/04/19 15:47:37;;;;;;;;;;;;;;;;;;;;;
2023/04/19 15:50:22;;;;;;;4.93;2.85;;;;;;;;;;4871986;29;20064;-95
2023/04/19 15:52:48;;;;;;;8.25;2.67;;;;;;;;;;4885259;29;20107;-94
2023/04/19 15:58:39;;;;;;;8.30;2.40;;;;;;;;;;4948640;23;20060;-96
2023/04/19 16:07:08;;;;;;;3.72;2.08;;;;;;;;;;4919656;29;20048;-94
2023/04/19 16:10:07;;;;;;;4.53;2.58;;;;;;;;;;4873737;29;20059;-96
2023/04/19 16:12:59;;;;;;;12.85;2.85;;;;;;;;;;4909697;29;20043;-96
2023/04/19 16:15:28;;;;;;;3.05;2.50;;;;;;;;;;4906829;29;20058;-94
2023/04/19 16:17:55;;;;;;;4.78;2.40;;;;;;;;;;4905194;29;20055;-94
2023/04/19 16:20:21;;;;;;;5.70;2.63;;;;;;;;;;4904963;29;20055;-94
2023/04/19 16:22:47;;;;;;;6.70;3.03;;;;;;;;;;4904404;29;20083;-95
2023/04/19 16:25:14;;;;;;;5.97;2.67;;;;;;;;;;4903620;29;20036;-94
2023/04/19 16:27:41;;;;;;;7.07;2.65;;;;;;;;;;4904024;29;20044;-95
2023/04/19 16:30:08;;;;;;;5.25;2.72;;;;;;;;;;4903680;29;20036;-94
2023/04/19 16:32:34;;;;;;;7.20;3.00;;;;;;;;;;4903385;29;20051;-95
2023/04/19 16:35:00;;;;;;;4.15;3.10;;;;;;;;;;4904708;29;20063;-95
2023/04/19 16:37:28;;;;;;;3.55;2.67;;;;;;;;;;4905570;29;20044;-94
2023/04/19 16:39:57;;;;;;;6.30;2.80;;;;;;;;;;4909275;29;20059;-96
2023/04/19 16:42:23;;;;;;;7.30;2.92;;;;;;;;;;4893824;29;20044;-94
2023/04/19 16:44:49;;;;;;;6.72;2.38;;;;;;;;;;4896217;29;20140;-93
2023/04/19 16:47:20;;;;;;;5.35;2.53;;;;;;;;;;4891065;29;20045;-94
2023/04/19 16:49:51;;;;;;;4.32;2.67;;;;;;;;;;4877282;29;20383;-94
2023/04/19 16:52:18;;;;;;;3.75;2.35;;;;;;;;;;4875959;29;20060;-92
2023/04/19 16:54:47;;;;;;;4.95;2.63;;;;;;;;;;4892289;29;20107;-94
2023/04/19 16:57:13;;;;;;;7.30;3.13;;;;;;;;;;4891018;29;20140;-94
2023/04/19 16:59:45;;;;;;;8.15;4.13;;;;;;;;;;4887396;29;20055;-93
2023/04/19 17:02:11;;;;;;;5.13;2.20;;;;;;;;;;4906131;29;20060;-94
2023/04/19 17:04:56;;;;;;;8.55;3.08;;;;;;;;;;4891124;29;20411;-94
2023/04/19 17:07:24;;;;;;;6.72;2.60;;;;;;;;;;4886643;29;20045;-93
2023/04/19 17:09:51;;;;;;;5.13;2.40;;;;;;;;;;4872162;29;20088;-93
2023/04/19 17:12:17;;;;;;;5.18;2.83;;;;;;;;;;4885947;29;20056;-93
2023/04/19 17:14:43;;;;;;;6.68;2.85;;;;;;;;;;4886407;29;20045;-93
2023/04/19 17:17:09;;;;;;;5.88;2.45;;;;;;;;;;4870689;29;20055;-93
2023/04/19 17:19:36;;;;;;;3.90;2.58;;;;;;;;;;4884541;29;20131;-93
2023/04/19 17:22:03;;;;;;;3.03;2.38;;;;;;;;;;4900766;29;20056;-93
2023/04/19 17:24:31;;;;;;;2.95;2.22;;;;;;;;;;4873182;29;20094;-93
2023/04/19 17:27:01;;;;;;;2.58;2.03;;;;;;;;;;4888365;29;20051;-93
2023/04/19 17:29:29;;;;;;;3.20;2.38;;;;;;;;;;4886989;29;20052;-94
2023/04/19 17:31:59;;;;;;;6.28;2.70;;;;;;;;;;4893985;29;20516;-93
2023/04/19 17:34:26;;;;;;;2.95;2.22;;;;;;;;;;4899977;29;20056;-93
2023/04/19 17:36:52;;;;;;;9.25;2.30;;;;;;;;;;4889482;29;20100;-93
2023/04/19 17:39:18;;;;;;;3.63;2.10;;;;;;;;;;4891015;29;20052;-93
2023/04/19 17:41:44;;;;;;;4.28;2.60;;;;;;;;;;4891139;29;20108;-92
2023/04/19 17:44:11;;;;;;;3.97;2.35;;;;;;;;;;4876094;29;20099;-93
2023/04/19 17:46:38;;;;;;;5.75;2.78;;;;;;;;;;4905816;29;20096;-93
2023/04/19 17:49:04;;;;;;;3.25;2.60;;;;;;;;;;4885222;29;20471;-92
2023/04/19 17:51:31;;;;;;;4.80;2.60;;;;;;;;;;4882183;29;20055;-92
2023/04/19 17:53:57;;;;;;;3.40;2.30;;;;;;;;;;4881825;29;20120;-92
2023/04/19 17:56:23;;;;;;;3.17;2.38;;;;;;;;;;4881191;29;20087;-93
2023/04/19 17:58:50;;;;;;;3.25;3.00;;;;;;;;;;4881245;29;20045;-93
2023/04/19 18:01:16;;;;;;;10.20;3.45;;;;;;;;;;4866211;29;20048;-93
2023/04/19 18:03:42;;;;;;;4.47;2.90;;;;;;;;;;4866016;29;20051;-92
2023/04/19 18:06:09;;;;;;;4.95;3.10;;;;;;;;;;4865737;29;20095;-93
2023/04/19 18:08:35;;;;;;;5.22;3.00;;;;;;;;;;4881258;29;20049;-92
2023/04/19 18:11:01;;;;;;;11.27;3.28;;;;;;;;;;4881681;29;20076;-93
2023/04/19 18:13:28;;;;;;;6.85;2.70;;;;;;;;;;4865959;29;20096;-93
2023/04/19 18:15:54;;;;;;;4.22;2.78;;;;;;;;;;4896833;29;20390;-92
2023/04/19 18:18:22;;;;;;;6.72;3.00;;;;;;;;;;4866028;29;20131;-93
2023/04/19 18:20:50;;;;;;;4.28;3.42;;;;;;;;;;4866343;29;20048;-91
2023/04/19 18:23:16;;;;;;;6.40;2.97;;;;;;;;;;4881300;29;20505;-92
2023/04/19 18:25:52;;;;;;;3.83;3.00;;;;;;;;;;4866509;29;20057;-93
2023/04/19 18:28:25;;;;;;;3.42;3.05;;;;;;;;;;4880857;29;20553;-92
2023/04/19 18:30:54;;;;;;;4.45;2.63;;;;;;;;;;4926101;23;20057;-90
2023/04/19 18:33:32;;;;;;;10.80;3.88;;;;;;;;;;4893397;29;20045;-90
2023/04/19 18:35:58;;;;;;;7.75;2.97;;;;;;;;;;4863281;29;20045;-91
2023/04/19 18:38:33;;;;;;;3.58;3.28;;;;;;;;;;4864540;29;20484;-91
2023/04/19 18:41:05;;;;;;;2.75;2.50;;;;;;;;;;4863850;29;20399;-90
2023/04/19 18:43:37;;;;;;;4.10;3.00;;;;;;;;;;4879453;29;20065;-90
2023/04/19 18:46:38;;;;;;;;;;;;;;;;;;;;;
2023/04/19 18:49:36;;;;;;;;;;;10.90;99.90;;;;;;4894268;29;20136;-93
2023/04/19 19:05:05;;;;;;;3.83;3.13;;;;;;;;;;4850884;29;19931;-91
2023/04/19 19:08:01;;;;;;;5.40;2.50;;;;;;;;;;4859814;29;20053;-91
2023/04/19 19:11:19;;;;;;;4.07;3.03;;;;;;;;;;4780452;30;20051;-91
2023/04/19 19:14:38;;;;;;;;;;;;;;;;;;;;;
2023/04/19 19:21:17;;;;;;;2.65;2.42;;;;;;;;;;4850014;29;20046;-93
2023/04/19 19:23:48;;;;;;;4.97;3.55;;;;;;;;;;4820691;29;20061;-92
2023/04/19 19:26:45;;;;;;;;;;;10.00;99.90;;;;;;4837948;29;20054;-93
2023/04/19 19:32:13;;;;;;;;;;;;;;;;;;;;;
2023/04/19 19:37:53;;;;;;;3.55;2.90;;;;;;;;;;4906564;29;20195;-92
2023/04/19 19:44:12;;;;;;;4.68;2.97;;;;;;;;;;4892085;29;20052;-91
2023/04/19 19:46:50;;;;;;;5.13;2.85;;;;;;;;;;4845857;29;20087;-93
2023/04/19 19:49:42;;;;;;;6.70;3.30;;;;;;;;;;4892103;29;20057;-92
2023/04/19 19:55:39;;;;;;;;;;;;;;;;;;;;;
2023/04/19 20:01:16;;;;;;;4.65;3.00;;;;;;;;;;4852159;29;20523;-92
2023/04/19 20:04:05;;;;;;;4.35;2.95;;;;;;;;;;4852113;29;20058;-91
2023/04/19 20:06:51;;;;;;;4.28;2.70;;;;;;;;;;4833106;29;20061;-94
2023/04/19 20:10:01;;;;;;;3.13;2.78;;;;;;;;;;4836368;29;20141;-92
2023/04/19 20:12:57;;;;;;;9.80;3.35;;;;;;;;;;4832957;29;20080;-92
2023/04/19 20:15:47;;;;;;;;;;;;;;;;;;;;;
2023/04/19 20:18:36;;;;;;;4.05;2.92;;;;;;;;;;4831856;29;20590;-93
2023/04/19 20:21:26;;;;;;;4.85;3.25;;;;;;;;;;4832639;29;20144;-92
2023/04/19 20:23:54;;;;;;;9.25;3.92;;;;;;;;;;4818604;29;20126;-90
2023/04/19 20:26:20;;;;;;;4.03;3.25;;;;;;;;;;4881971;29;20065;-92
2023/04/19 20:28:48;;;;;;;3.92;3.00;;;;;;;;;;4885338;29;20077;-95
2023/04/19 20:31:14;;;;;;;3.85;2.92;;;;;;;;;;4885216;29;20068;-95
2023/04/19 20:33:40;;;;;;;5.28;3.42;;;;;;;;;;4887196;29;20056;-95
2023/04/19 20:36:08;;;;;;;5.40;3.25;;;;;;;;;;4885261;29;20048;-95
2023/04/19 20:38:37;;;;;;;9.98;3.30;;;;;;;;;;4920521;29;20064;-94
2023/04/19 20:41:03;;;;;;;6.28;3.17;;;;;;;;;;4919845;29;20059;-95
2023/04/19 20:43:30;;;;;;;5.70;3.10;;;;;;;;;;4889423;29;20048;-92